Time;durP1;ratioP1;P1;durP2;ratioP2;P2;SDS_P1;SDS_P2;PMS_P1;PMS_P2;Temp;Humidity;BMP_temperature;BMP_pressure;BME280_temperature;BME280_humidity;BME280_pressure;Samples;Min_cycle;Max_cycle;Signal;HPM_P1;HPM_P2
2023/10/06 00:00:53;;;;;;;9.13;3.90;;;20.00;68.10;;;;;;4989928;28;20110;-66
2023/10/06 00:03:22;;;;;;;9.40;4.50;;;20.00;68.10;;;;;;5025742;28;20024;-66
2023/10/06 00:05:48;;;;;;;7.18;3.00;;;20.10;68.20;;;;;;5091520;28;20581;-65
2023/10/06 00:08:17;;;;;;;8.27;3.67;;;20.00;68.20;;;;;;5015295;28;20439;-66
2023/10/06 00:10:50;;;;;;;7.63;3.80;;;20.00;68.30;;;;;;4990645;28;20035;-66
2023/10/06 00:13:20;;;;;;;10.55;3.58;;;20.00;68.20;;;;;;4993549;28;20026;-66
2023/10/06 00:15:46;;;;;;;;;;;20.00;68.30;;;;;;4990777;28;20042;-66
2023/10/06 00:18:16;;;;;;;8.60;3.80;;;20.00;68.20;;;;;;4990927;28;19967;-65
2023/10/06 00:20:49;;;;;;;;;;;20.00;68.20;;;;;;4990589;28;20049;-66
2023/10/06 00:23:22;;;;;;;7.53;3.75;;;20.00;68.20;;;;;;4990765;28;20288;-66
2023/10/06 00:25:54;;;;;;;9.63;3.60;;;20.00;68.30;;;;;;4990034;28;20037;-65
2023/10/06 00:28:25;;;;;;;6.75;3.33;;;20.00;68.30;;;;;;4990807;28;20038;-65
2023/10/06 00:30:56;;;;;;;6.95;3.50;;;20.10;68.40;;;;;;4972689;28;20030;-65
2023/10/06 00:33:27;;;;;;;9.77;3.63;;;20.00;68.30;;;;;;4988301;28;20419;-65
2023/10/06 00:35:53;;;;;;;;;;;20.00;68.30;;;;;;5032437;28;20055;-65
2023/10/06 00:38:19;;;;;;;7.72;3.50;;;20.00;68.40;;;;;;5060800;28;20308;-66
2023/10/06 00:40:51;;;;;;;5.85;3.20;;;20.00;68.30;;;;;;4989505;28;20030;-66
2023/10/06 00:43:39;;;;;;;6.05;3.33;;;20.00;68.40;;;;;;4990062;28;20030;-66
2023/10/06 00:46:09;;;;;;;9.80;3.20;;;20.00;68.40;;;;;;4986230;28;20026;-66
2023/10/06 00:48:42;;;;;;;;;;;20.00;68.40;;;;;;4989949;28;20029;-65
2023/10/06 00:51:25;;;;;;;6.40;3.08;;;20.00;69.10;;;;;;4972171;28;19914;-66
2023/10/06 00:53:56;;;;;;;7.78;3.47;;;20.00;68.50;;;;;;4989060;28;20084;-66
2023/10/06 00:56:27;;;;;;;8.73;3.70;;;20.00;68.50;;;;;;4989371;28;20022;-65
2023/10/06 00:58:53;;;;;;;10.07;3.40;;;20.00;68.50;;;;;;4971410;28;20033;-66
2023/10/06 01:01:21;;;;;;;5.78;3.20;;;20.00;68.50;;;;;;4988282;28;20486;-66
2023/10/06 01:03:49;;;;;;;7.15;3.25;;;20.00;69.10;;;;;;4988756;28;20022;-65
2023/10/06 01:06:23;;;;;;;7.45;3.15;;;20.00;68.60;;;;;;5035775;28;20035;-65
2023/10/06 01:09:05;;;;;;;6.63;3.25;;;20.00;68.50;;;;;;5068583;28;20390;-65
2023/10/06 01:11:45;;;;;;;9.48;2.92;;;20.00;68.50;;;;;;4989279;28;20037;-65
2023/10/06 01:14:14;;;;;;;7.43;3.28;;;20.00;68.60;;;;;;4971884;28;20022;-65
2023/10/06 01:16:42;;;;;;;6.55;2.90;;;20.00;68.60;;;;;;4989316;28;20033;-66
2023/10/06 01:19:17;;;;;;;9.77;3.35;;;20.00;68.60;;;;;;4989507;28;20029;-66
2023/10/06 01:21:47;;;;;;;7.75;2.80;;;20.00;68.40;;;;;;4971089;28;20041;-65
2023/10/06 01:24:23;;;;;;;8.63;3.38;;;20.00;69.10;;;;;;4971567;28;20091;-65
2023/10/06 01:26:49;;;;;;;6.10;3.20;;;20.00;68.50;;;;;;4972375;28;20030;-65
2023/10/06 01:29:15;;;;;;;8.32;3.03;;;20.10;68.50;;;;;;4988981;28;20034;-65
2023/10/06 01:31:41;;;;;;;6.32;3.08;;;20.00;68.50;;;;;;4989790;28;20049;-65
2023/10/06 01:34:08;;;;;;;9.55;3.20;;;20.00;68.70;;;;;;4971471;28;20065;-66
2023/10/06 01:36:42;;;;;;;15.38;3.80;;;20.10;68.80;;;;;;5048370;28;20444;-65
2023/10/06 01:39:17;;;;;;;9.40;3.38;;;20.10;68.90;;;;;;5017978;28;20034;-66
2023/10/06 01:41:47;;;;;;;14.98;3.40;;;20.10;69.40;;;;;;4988134;28;20027;-65
2023/10/06 01:44:16;;;;;;;13.65;3.45;;;20.10;69.40;;;;;;4987703;28;20042;-65
2023/10/06 01:46:44;;;;;;;8.75;3.65;;;20.10;69.40;;;;;;4987749;28;20040;-65
2023/10/06 01:49:11;;;;;;;9.50;3.20;;;20.10;69.40;;;;;;4989505;28;20026;-65
2023/10/06 01:51:38;;;;;;;8.32;3.30;;;20.00;69.30;;;;;;4971007;28;20041;-65
2023/10/06 01:54:12;;;;;;;6.50;3.22;;;20.00;69.40;;;;;;4988918;28;20026;-65
2023/10/06 01:56:44;;;;;;;7.13;3.15;;;20.00;69.20;;;;;;4988791;28;20022;-65
2023/10/06 01:59:11;;;;;;;6.70;3.28;;;20.10;69.80;;;;;;4971725;28;20030;-65
2023/10/06 02:01:39;;;;;;;8.05;3.20;;;20.00;69.20;;;;;;4971375;28;20030;-65
2023/10/06 02:04:08;;;;;;;10.95;3.30;;;20.00;69.10;;;;;;4986725;28;20506;-65
2023/10/06 02:06:35;;;;;;;7.97;3.05;;;20.00;69.20;;;;;;4988623;28;20378;-66
2023/10/06 02:09:18;;;;;;;9.15;3.70;;;20.00;69.20;;;;;;4988694;28;20518;-66
2023/10/06 02:11:44;;;;;;;5.40;2.88;;;20.00;69.10;;;;;;4986596;28;20031;-65
2023/10/06 02:14:17;;;;;;;7.82;3.35;;;20.00;69.30;;;;;;4955197;28;20026;-66
2023/10/06 02:16:48;;;;;;;6.95;3.33;;;20.00;69.20;;;;;;4988286;28;20497;-65
2023/10/06 02:19:17;;;;;;;8.80;3.08;;;20.00;69.10;;;;;;4988728;28;20435;-65
2023/10/06 02:21:44;;;;;;;9.07;3.27;;;20.00;69.10;;;;;;4988663;28;20022;-65
2023/10/06 02:24:10;;;;;;;6.97;3.00;;;20.00;69.00;;;;;;4988172;28;20633;-65
2023/10/06 02:26:36;;;;;;;6.85;3.10;;;20.00;69.10;;;;;;4989023;28;20057;-66
2023/10/06 02:29:07;;;;;;;6.30;2.90;;;20.00;69.10;;;;;;4971171;28;20393;-65
2023/10/06 02:31:35;;;;;;;5.35;2.95;;;20.00;69.20;;;;;;4970950;28;20031;-65
2023/10/06 02:34:01;;;;;;;10.00;3.67;;;20.00;69.20;;;;;;4988813;28;20566;-65
2023/10/06 02:36:28;;;;;;;8.10;3.42;;;20.00;69.30;;;;;;4971632;28;20115;-65
2023/10/06 02:38:54;;;;;;;5.53;2.75;;;20.00;69.20;;;;;;4988000;28;20027;-65
2023/10/06 02:41:25;;;;;;;7.18;3.17;;;20.00;69.20;;;;;;4987658;28;20107;-65
2023/10/06 02:43:55;;;;;;;8.35;3.00;;;20.00;69.30;;;;;;4971150;28;20091;-66
2023/10/06 02:46:22;;;;;;;6.05;2.83;;;20.00;69.20;;;;;;4986883;28;20026;-65
2023/10/06 02:48:49;;;;;;;7.70;3.38;;;20.00;69.30;;;;;;4988708;28;20431;-65
2023/10/06 02:51:32;;;;;;;7.60;3.00;;;20.00;69.30;;;;;;4987420;28;20035;-65
2023/10/06 02:57:03;;;;;;;6.75;2.83;;;20.00;69.20;;;;;;4927412;29;20131;-65
2023/10/06 02:59:34;;;;;;;5.93;2.70;;;20.00;69.10;;;;;;4933409;28;20035;-65
2023/10/06 03:02:06;;;;;;;5.63;2.67;;;20.00;69.10;;;;;;4921040;28;20032;-66
2023/10/06 03:04:36;;;;;;;9.00;3.45;;;20.00;69.30;;;;;;4928190;28;20043;-65
2023/10/06 03:07:05;;;;;;;7.38;3.05;;;20.00;69.40;;;;;;4914441;28;20040;-65
2023/10/06 03:09:45;;;;;;;6.43;2.70;;;20.00;69.30;;;;;;5011415;28;20028;-66
2023/10/06 03:14:40;;;;;;;7.10;3.15;;;20.00;69.30;;;;;;4928187;28;20028;-66
2023/10/06 03:17:10;;;;;;;5.72;2.55;;;20.00;69.30;;;;;;4959862;28;20065;-65
2023/10/06 03:19:40;;;;;;;6.50;3.03;;;20.00;69.40;;;;;;5024514;28;20124;-66
2023/10/06 03:22:09;;;;;;;4.65;2.80;;;20.00;69.30;;;;;;5011438;28;20531;-66
2023/10/06 03:24:52;;;;;;;5.53;2.90;;;20.00;69.40;;;;;;4932169;28;20529;-66
2023/10/06 03:27:22;;;;;;;7.70;2.80;;;20.00;69.40;;;;;;5010764;28;20527;-66
2023/10/06 03:29:55;;;;;;;6.07;2.85;;;20.00;69.30;;;;;;4935377;28;20032;-66
2023/10/06 03:32:32;;;;;;;4.88;2.70;;;20.00;69.40;;;;;;4974264;28;20032;-66
2023/10/06 03:37:52;;;;;;;7.78;2.80;;;20.00;69.40;;;;;;4988211;28;20037;-66
2023/10/06 03:40:53;;;;;;;4.65;2.78;;;20.00;69.40;;;;;;4970104;28;20494;-66
2023/10/06 03:43:13;;;;;;;8.40;2.70;;;20.00;69.30;;;;;;4967776;28;20562;-66
2023/10/06 03:45:40;;;;;;;7.65;3.15;;;20.00;69.40;;;;;;4969851;28;20030;-66
2023/10/06 03:48:11;;;;;;;7.95;3.20;;;20.00;69.40;;;;;;4989930;28;20047;-66
2023/10/06 03:50:43;;;;;;;6.65;2.80;;;19.90;69.40;;;;;;5075862;28;20020;-66
2023/10/06 03:53:11;;;;;;;7.05;3.00;;;20.00;69.40;;;;;;4965497;28;20121;-66
2023/10/06 03:55:45;;;;;;;8.18;3.53;;;20.00;70.00;;;;;;4969593;28;20026;-66
2023/10/06 03:58:13;;;;;;;5.55;2.78;;;20.00;69.50;;;;;;4970738;28;20031;-66
2023/10/06 04:00:40;;;;;;;10.15;2.67;;;20.00;69.50;;;;;;4954136;28;20034;-66
2023/10/06 04:03:09;;;;;;;6.47;3.00;;;19.90;69.40;;;;;;4985459;28;20397;-66
2023/10/06 04:05:37;;;;;;;5.35;3.00;;;20.00;69.50;;;;;;4987647;28;20083;-66
2023/10/06 04:08:13;;;;;;;6.22;2.90;;;19.90;69.40;;;;;;4955408;28;20036;-66
2023/10/06 04:10:43;;;;;;;4.38;2.88;;;20.00;69.50;;;;;;4989577;28;20026;-66
2023/10/06 04:13:10;;;;;;;8.15;3.00;;;19.90;69.60;;;;;;4972787;28;20034;-66
2023/10/06 04:15:43;;;;;;;6.85;3.00;;;20.00;69.50;;;;;;4990556;28;20030;-66
2023/10/06 04:18:10;;;;;;;7.70;2.90;;;20.00;69.50;;;;;;5004932;28;20510;-66
2023/10/06 04:20:41;;;;;;;10.00;3.17;;;20.00;69.50;;;;;;5078548;28;20028;-66
2023/10/06 04:23:11;;;;;;;4.53;2.50;;;19.90;69.60;;;;;;5003721;28;20026;-66
2023/10/06 04:25:38;;;;;;;7.63;2.85;;;20.00;69.60;;;;;;4989968;28;20058;-66
2023/10/06 04:28:11;;;;;;;6.55;3.13;;;20.00;69.50;;;;;;4990334;28;20018;-66
2023/10/06 04:30:38;;;;;;;8.70;2.92;;;20.00;69.50;;;;;;4990294;28;20030;-66
2023/10/06 04:33:04;;;;;;;8.25;3.10;;;20.00;69.50;;;;;;4990160;28;20424;-66
2023/10/06 04:35:33;;;;;;;9.73;3.47;;;19.90;69.50;;;;;;4989915;28;20023;-66
2023/10/06 04:38:03;;;;;;;7.15;3.08;;;20.00;69.60;;;;;;4983104;28;20030;-65
2023/10/06 04:40:29;;;;;;;5.13;3.13;;;20.00;69.40;;;;;;4989723;28;20027;-65
2023/10/06 04:42:56;;;;;;;8.20;3.25;;;20.00;69.50;;;;;;4989907;28;20037;-66
2023/10/06 04:45:23;;;;;;;6.40;3.38;;;20.00;69.50;;;;;;4989870;28;20026;-66
2023/10/06 04:47:49;;;;;;;8.45;3.53;;;20.00;69.50;;;;;;4989586;28;20460;-66
2023/10/06 04:50:16;;;;;;;7.68;3.05;;;20.00;69.50;;;;;;5058396;28;20039;-65
2023/10/06 04:52:46;;;;;;;7.85;3.40;;;20.00;69.50;;;;;;5052436;22;20103;-59
2023/10/06 04:55:13;;;;;;;7.32;3.72;;;19.90;69.40;;;;;;5008629;28;20053;-55
2023/10/06 04:57:41;;;;;;;5.72;3.00;;;20.00;69.40;;;;;;5009559;28;20033;-57
2023/10/06 05:00:13;;;;;;;10.32;3.47;;;20.00;69.40;;;;;;4987453;28;20417;-57
2023/10/06 05:02:43;;;;;;;6.30;3.22;;;20.00;69.30;;;;;;5036666;28;20199;-54
2023/10/06 05:05:11;;;;;;;4.80;3.10;;;20.00;69.40;;;;;;5026814;28;20027;-54
2023/10/06 05:07:38;;;;;;;8.95;3.50;;;20.00;69.50;;;;;;5016688;28;20125;-55
2023/10/06 05:10:08;;;;;;;8.18;3.88;;;20.00;69.50;;;;;;5032133;28;20024;-57
2023/10/06 05:12:37;;;;;;;8.73;3.67;;;20.00;69.40;;;;;;5006441;28;20051;-57
2023/10/06 05:15:07;;;;;;;5.25;3.42;;;20.00;69.40;;;;;;5063906;28;20022;-51
2023/10/06 05:17:36;;;;;;;6.82;3.17;;;20.00;69.40;;;;;;5025357;28;20436;-59
2023/10/06 05:20:04;;;;;;;6.30;3.35;;;20.00;69.50;;;;;;5027690;28;20029;-56
2023/10/06 05:22:31;;;;;;;8.25;3.38;;;20.00;69.40;;;;;;5067928;28;20080;-57
2023/10/06 05:24:59;;;;;;;9.35;3.67;;;20.00;69.50;;;;;;5087914;28;20024;-56
2023/10/06 05:27:26;;;;;;;7.80;3.70;;;20.00;69.40;;;;;;5049031;28;20071;-54
2023/10/06 05:29:52;;;;;;;6.22;3.33;;;20.00;69.60;;;;;;5026962;28;20061;-55
2023/10/06 05:32:18;;;;;;;7.70;3.45;;;20.00;69.50;;;;;;5048897;28;20506;-55
2023/10/06 05:34:44;;;;;;;6.05;3.38;;;19.90;69.50;;;;;;5043756;28;20024;-59
2023/10/06 05:37:09;;;;;;;6.80;3.30;;;20.00;69.60;;;;;;5020250;28;20507;-58
2023/10/06 05:39:36;;;;;;;7.22;3.00;;;20.00;69.60;;;;;;5032154;28;20027;-54
2023/10/06 05:42:04;;;;;;;6.88;3.17;;;20.00;69.60;;;;;;5027525;28;20027;-58
2023/10/06 05:44:30;;;;;;;6.05;3.33;;;20.00;69.60;;;;;;5031082;28;20076;-56
2023/10/06 05:46:57;;;;;;;6.90;3.10;;;20.00;69.60;;;;;;5024793;28;20054;-59
2023/10/06 05:49:22;;;;;;;7.97;3.67;;;20.00;69.70;;;;;;5031033;28;20386;-59
2023/10/06 05:51:49;;;;;;;9.95;3.55;;;20.00;69.50;;;;;;5000087;28;20023;-58
2023/10/06 05:54:21;;;;;;;6.53;3.38;;;20.00;69.60;;;;;;5060638;28;20020;-58
2023/10/06 05:56:53;;;;;;;6.72;3.40;;;19.90;69.60;;;;;;5043703;28;20454;-59
2023/10/06 05:59:23;;;;;;;7.63;3.40;;;20.00;69.50;;;;;;5087669;28;20028;-60
2023/10/06 06:02:09;;;;;;;5.68;3.17;;;20.00;70.30;;;;;;5030381;28;20030;-58
2023/10/06 06:04:38;;;;;;;10.32;3.70;;;19.90;69.20;;;;;;5032716;28;20070;-55
2023/10/06 06:07:08;;;;;;;7.65;3.25;;;20.00;69.80;;;;;;5063005;28;20032;-61
2023/10/06 06:09:33;;;;;;;6.95;3.13;;;20.00;69.20;;;;;;5027564;28;20035;-58
2023/10/06 06:12:00;;;;;;;12.70;3.70;;;20.00;69.70;;;;;;4982866;28;20026;-56
2023/10/06 06:14:26;;;;;;;15.32;3.67;;;20.10;69.20;;;;;;5023790;28;20499;-59
2023/10/06 06:16:52;;;;;;;10.02;2.90;;;20.10;69.10;;;;;;5032672;28;20033;-55
2023/10/06 06:19:19;;;;;;;10.40;2.78;;;20.10;69.00;;;;;;5048942;28;20458;-56
2023/10/06 06:21:45;;;;;;;8.00;2.80;;;20.10;68.90;;;;;;5091213;28;20020;-57
2023/10/06 06:24:11;;;;;;;8.95;3.63;;;20.00;69.00;;;;;;5056813;28;20034;-57
2023/10/06 06:26:38;;;;;;;7.97;2.95;;;20.10;69.10;;;;;;5032066;28;20022;-57
2023/10/06 06:29:08;;;;;;;16.42;3.65;;;20.10;69.30;;;;;;5047448;28;20155;-54
2023/10/06 06:31:34;;;;;;;20.80;4.13;;;20.00;69.20;;;;;;5038937;28;20540;-54
2023/10/06 06:34:06;;;;;;;12.02;4.13;;;20.10;70.60;;;;;;5041695;28;20020;-52
2023/10/06 06:36:32;;;;;;;29.80;4.40;;;20.00;70.10;;;;;;5091016;28;20403;-55
2023/10/06 06:38:59;;;;;;;24.58;4.70;;;20.00;70.70;;;;;;5070784;28;20487;-53
2023/10/06 06:41:25;;;;;;;27.70;4.80;;;20.10;70.50;;;;;;5090510;28;20032;-57
2023/10/06 06:43:58;;;;;;;17.80;4.88;;;20.10;71.10;;;;;;5090539;28;20099;-56
2023/10/06 06:46:29;;;;;;;25.98;6.20;;;20.10;70.90;;;;;;5090760;28;20125;-53
2023/10/06 06:48:56;;;;;;;35.33;6.30;;;20.10;72.80;;;;;;5091230;28;20061;-56
2023/10/06 06:51:30;;;;;;;10.57;3.08;;;20.10;73.40;;;;;;5054818;28;20030;-55
2023/10/06 06:53:56;;;;;;;11.35;3.83;;;20.10;71.10;;;;;;5088176;28;20024;-55
2023/10/06 06:56:28;;;;;;;24.77;4.28;;;20.10;72.00;;;;;;5091162;28;20020;-53
2023/10/06 06:58:55;;;;;;;22.27;4.28;;;20.10;72.00;;;;;;4992120;28;20086;-54
2023/10/06 07:01:21;;;;;;;11.93;3.40;;;20.10;72.60;;;;;;5019651;28;20026;-50
2023/10/06 07:03:47;;;;;;;14.25;3.40;;;20.10;71.60;;;;;;5047047;28;20020;-57
2023/10/06 07:06:16;;;;;;;11.55;3.30;;;20.00;71.50;;;;;;5088448;28;20710;-56
2023/10/06 07:08:44;;;;;;;13.68;3.28;;;20.10;72.50;;;;;;5090776;28;20400;-53
2023/10/06 07:11:10;;;;;;;14.05;3.50;;;20.00;72.20;;;;;;5090626;28;20124;-50
2023/10/06 07:13:38;;;;;;;12.25;3.13;;;20.00;72.20;;;;;;5090384;28;20499;-51
2023/10/06 07:16:05;;;;;;;10.02;3.53;;;20.00;71.90;;;;;;5090720;28;20145;-54
2023/10/06 07:18:32;;;;;;;15.07;4.45;;;20.00;71.60;;;;;;5090695;28;20476;-54
2023/10/06 07:20:58;;;;;;;17.23;3.47;;;20.00;71.60;;;;;;5090577;28;20032;-54
2023/10/06 07:23:24;;;;;;;10.88;3.65;;;20.00;71.50;;;;;;5090359;28;20067;-56
2023/10/06 07:25:49;;;;;;;15.73;3.47;;;20.10;71.60;;;;;;5053854;28;20055;-57
2023/10/06 07:28:15;;;;;;;25.60;5.07;;;20.10;71.60;;;;;;5086122;28;20023;-59
2023/10/06 07:30:41;;;;;;;19.48;5.88;;;20.10;72.80;;;;;;5062170;28;20043;-56
2023/10/06 07:33:07;;;;;;;22.33;6.63;;;20.10;71.40;;;;;;5087259;28;20108;-60
2023/10/06 07:35:47;;;;;;;19.15;5.80;;;20.10;71.10;;;;;;5064080;28;20024;-59
2023/10/06 07:38:13;;;;;;;13.60;4.43;;;20.00;74.20;;;;;;5087875;28;20056;-58
2023/10/06 07:40:40;;;;;;;13.35;5.63;;;20.10;75.10;;;;;;5049274;28;20379;-53
2023/10/06 07:43:07;;;;;;;17.02;6.03;;;20.10;75.50;;;;;;5006880;28;20466;-58
2023/10/06 07:45:34;;;;;;;26.40;6.18;;;20.10;75.10;;;;;;5033027;28;20313;-58
2023/10/06 07:47:59;;;;;;;16.52;6.72;;;20.10;74.30;;;;;;5012826;28;20082;-55
2023/10/06 07:50:33;;;;;;;20.60;7.72;;;20.20;76.10;;;;;;5075923;28;20025;-58
2023/10/06 07:53:02;;;;;;;15.50;6.68;;;20.20;74.90;;;;;;5084404;28;20483;-59
2023/10/06 07:55:28;;;;;;;17.25;5.75;;;20.30;72.80;;;;;;5071813;28;20024;-59
2023/10/06 07:57:54;;;;;;;14.90;6.68;;;20.30;71.90;;;;;;5082543;28;20034;-55
2023/10/06 08:00:28;;;;;;;16.42;7.10;;;20.30;71.60;;;;;;5057130;28;20034;-57
2023/10/06 08:02:54;;;;;;;16.83;7.38;;;20.30;71.50;;;;;;5083942;28;20028;-60
2023/10/06 08:05:20;;;;;;;13.57;6.07;;;20.30;71.40;;;;;;5079806;28;20609;-56
2023/10/06 08:07:46;;;;;;;13.13;5.90;;;20.20;69.80;;;;;;5066966;28;20118;-59
2023/10/06 08:10:16;;;;;;;11.88;6.20;;;20.30;69.70;;;;;;5077829;28;20108;-58
2023/10/06 08:12:49;;;;;;;16.45;6.25;;;20.20;69.90;;;;;;5083969;28;20028;-59
2023/10/06 08:15:21;;;;;;;16.23;5.63;;;20.30;70.40;;;;;;5078126;28;20059;-57
2023/10/06 08:17:50;;;;;;;16.90;6.40;;;20.30;68.90;;;;;;5084363;28;20144;-57
2023/10/06 08:20:17;;;;;;;21.98;6.20;;;20.20;69.60;;;;;;5082674;28;20181;-58
2023/10/06 08:22:47;;;;;;;15.10;5.78;;;20.20;69.70;;;;;;5084351;28;20082;-57
2023/10/06 08:25:19;;;;;;;16.92;5.57;;;20.10;69.80;;;;;;5080869;28;20036;-59
2023/10/06 08:27:48;;;;;;;17.90;5.65;;;20.20;69.60;;;;;;5081682;28;20423;-56
2023/10/06 08:30:21;;;;;;;13.85;4.88;;;20.20;69.00;;;;;;5081679;28;20046;-57
2023/10/06 08:32:52;;;;;;;12.23;4.90;;;20.20;70.10;;;;;;5075384;28;20133;-59
2023/10/06 08:35:19;;;;;;;12.02;4.35;;;20.30;69.20;;;;;;5020669;28;20349;-56
2023/10/06 08:37:51;;;;;;;10.02;4.30;;;20.30;69.70;;;;;;5026855;28;20030;-58
2023/10/06 08:40:19;;;;;;;14.50;4.57;;;20.30;69.40;;;;;;5052178;28;20115;-58
2023/10/06 08:42:54;;;;;;;11.82;4.30;;;20.30;69.30;;;;;;5068237;28;20032;-59
2023/10/06 08:45:24;;;;;;;15.02;4.95;;;20.30;70.10;;;;;;5051613;28;20138;-58
2023/10/06 08:47:59;;;;;;;16.80;4.50;;;20.20;70.50;;;;;;5005438;28;20030;-56
2023/10/06 08:50:29;;;;;;;13.20;3.85;;;20.30;70.60;;;;;;5052168;28;20016;-56
2023/10/06 08:52:56;;;;;;;8.50;3.75;;;20.30;70.60;;;;;;5069490;28;20032;-59
2023/10/06 08:55:24;;;;;;;13.10;3.88;;;20.30;69.80;;;;;;5071691;28;20043;-58
2023/10/06 08:57:52;;;;;;;14.00;3.92;;;20.30;69.50;;;;;;5069305;28;20073;-57
2023/10/06 09:00:22;;;;;;;12.18;4.18;;;20.30;69.60;;;;;;5030080;28;20034;-51
2023/10/06 09:02:51;;;;;;;7.50;3.33;;;20.30;69.60;;;;;;5044106;28;20028;-53
2023/10/06 09:05:17;;;;;;;11.17;3.90;;;20.20;70.30;;;;;;5055302;28;20032;-53
2023/10/06 09:08:04;;;;;;;9.60;3.60;;;20.20;70.00;;;;;;4987992;28;20040;-54
2023/10/06 09:10:32;;;;;;;14.75;3.58;;;20.20;69.90;;;;;;5051012;28;20031;-51
2023/10/06 09:13:11;;;;;;;11.23;3.47;;;20.30;70.80;;;;;;5087635;28;20107;-53
2023/10/06 09:15:39;;;;;;;20.38;4.18;;;20.20;70.70;;;;;;5051457;28;20024;-62
2023/10/06 09:18:21;;;;;;;18.73;3.60;;;20.20;70.90;;;;;;5084074;28;20050;-60
2023/10/06 09:20:48;;;;;;;11.57;3.40;;;20.20;71.40;;;;;;5042349;28;20020;-58
2023/10/06 09:23:36;;;;;;;16.38;3.80;;;20.20;71.00;;;;;;4992527;28;20113;-56
2023/10/06 09:26:04;;;;;;;21.60;4.00;;;20.30;70.50;;;;;;5064604;28;20024;-54
2023/10/06 09:28:31;;;;;;;74.50;6.00;;;20.30;70.60;;;;;;5084023;28;20059;-58
2023/10/06 09:31:02;;;;;;;73.75;6.03;;;20.30;70.50;;;;;;5053220;28;20025;-54
2023/10/06 09:33:48;;;;;;;67.40;4.45;;;20.30;70.90;;;;;;5007810;28;20030;-56
2023/10/06 09:36:17;;;;;;;55.60;6.65;;;20.30;70.20;;;;;;5056992;28;20044;-59
2023/10/06 09:38:47;;;;;;;41.70;4.77;;;20.30;70.90;;;;;;5089661;28;20551;-56
2023/10/06 09:41:24;;;;;;;56.63;5.32;;;20.30;71.10;;;;;;5068134;28;20274;-51
2023/10/06 09:43:53;;;;;;;38.90;4.95;;;20.30;70.80;;;;;;5089664;28;20035;-60
2023/10/06 09:46:22;;;;;;;33.90;5.40;;;20.30;70.30;;;;;;5068929;28;20059;-51
2023/10/06 09:48:51;;;;;;;28.80;4.97;;;20.30;70.40;;;;;;5089589;28;20024;-55
2023/10/06 09:51:19;;;;;;;26.08;4.63;;;20.30;70.70;;;;;;5069942;28;20305;-51
2023/10/06 09:53:47;;;;;;;28.33;4.82;;;20.30;69.90;;;;;;5089741;28;20028;-53
2023/10/06 09:56:16;;;;;;;35.63;5.60;;;20.30;70.00;;;;;;5071159;28;20038;-58
2023/10/06 09:58:47;;;;;;;28.90;4.47;;;20.30;71.10;;;;;;5071505;28;20487;-57
2023/10/06 10:01:15;;;;;;;23.55;4.63;;;20.30;71.10;;;;;;5054358;28;20038;-55
2023/10/06 10:03:44;;;;;;;34.70;5.15;;;20.30;71.50;;;;;;5088879;28;20023;-59
2023/10/06 10:06:10;;;;;;;19.95;4.80;;;20.30;71.60;;;;;;5072810;28;20035;-60
2023/10/06 10:08:41;;;;;;;42.95;5.18;;;20.30;71.60;;;;;;5089291;28;20028;-59
2023/10/06 10:11:33;;;;;;;20.67;4.20;;;20.30;71.90;;;;;;5055944;28;20016;-58
2023/10/06 10:14:25;;;;;;;32.83;4.82;;;20.30;71.80;;;;;;5070815;28;20032;-61
2023/10/06 10:17:06;;;;;;;33.03;5.00;;;20.20;71.80;;;;;;5082312;28;20043;-61
2023/10/06 10:19:34;;;;;;;27.23;4.75;;;20.30;71.80;;;;;;5079811;28;20110;-59
2023/10/06 10:22:03;;;;;;;23.08;4.50;;;20.30;71.20;;;;;;5069085;28;20030;-59
2023/10/06 10:24:31;;;;;;;31.20;4.25;;;20.30;71.40;;;;;;5082864;28;20040;-60
2023/10/06 10:26:59;;;;;;;33.25;5.47;;;20.30;71.20;;;;;;5085195;28;20038;-60
2023/10/06 10:29:25;;;;;;;24.48;4.50;;;20.30;71.00;;;;;;5086165;28;20024;-59
2023/10/06 10:32:01;;;;;;;32.00;5.28;;;20.30;71.00;;;;;;5081722;28;20543;-60
2023/10/06 10:34:33;;;;;;;34.42;5.57;;;20.30;70.10;;;;;;5024423;28;20034;-60
2023/10/06 10:37:05;;;;;;;33.97;5.53;;;20.40;69.90;;;;;;5085270;28;20037;-61
2023/10/06 10:40:00;;;;;;;24.83;4.63;;;20.30;70.00;;;;;;5083917;28;20119;-58
2023/10/06 10:42:44;;;;;;;26.73;4.82;;;20.30;70.40;;;;;;5006091;28;20113;-57
2023/10/06 10:45:34;;;;;;;24.92;4.55;;;20.30;69.90;;;;;;5007995;28;20034;-58
2023/10/06 10:48:06;;;;;;;27.23;4.75;;;20.30;70.30;;;;;;5006421;28;20460;-54
2023/10/06 10:51:00;;;;;;;26.90;4.50;;;20.30;70.00;;;;;;5007710;28;20083;-60
2023/10/06 10:53:37;;;;;;;20.13;5.40;;;20.30;69.50;;;;;;5006044;28;20564;-56
2023/10/06 10:56:05;;;;;;;14.82;3.72;;;20.30;70.10;;;;;;5007357;28;20033;-60
2023/10/06 10:58:49;;;;;;;24.73;4.78;;;20.30;69.70;;;;;;5006199;28;20460;-60
2023/10/06 11:01:29;;;;;;;14.95;4.78;;;20.30;69.80;;;;;;5006443;28;20117;-59
2023/10/06 11:04:12;;;;;;;16.48;3.63;;;20.30;70.00;;;;;;5005964;28;20523;-58
2023/10/06 11:06:49;;;;;;;20.52;4.95;;;20.30;69.80;;;;;;5006537;28;20030;-58
2023/10/06 11:09:26;;;;;;;19.00;4.97;;;20.30;69.50;;;;;;5006085;28;20174;-59
2023/10/06 11:11:58;;;;;;;22.67;5.47;;;20.30;69.60;;;;;;5006018;28;20034;-59
2023/10/06 11:14:29;;;;;;;19.92;4.95;;;20.30;69.50;;;;;;4990311;28;20057;-59
2023/10/06 11:17:02;;;;;;;15.50;4.50;;;20.40;69.20;;;;;;5006190;28;20415;-57
2023/10/06 11:19:32;;;;;;;22.80;5.07;;;20.40;69.30;;;;;;5072224;28;20528;-59
2023/10/06 11:22:22;;;;;;;20.95;4.90;;;20.40;70.00;;;;;;5058311;28;20027;-60
2023/10/06 11:24:57;;;;;;;30.83;5.55;;;20.40;71.00;;;;;;5089117;28;20151;-60
2023/10/06 11:27:23;;;;;;;21.23;5.40;;;20.40;71.10;;;;;;5068537;28;20106;-59
2023/10/06 11:29:52;;;;;;;21.40;5.15;;;20.40;71.00;;;;;;5089228;28;20100;-60
2023/10/06 11:32:19;;;;;;;24.85;5.55;;;20.40;71.20;;;;;;5065147;28;20095;-60
2023/10/06 11:34:45;;;;;;;19.23;4.88;;;20.40;71.20;;;;;;5092158;28;20384;-59
2023/10/06 11:37:17;;;;;;;15.07;4.90;;;20.40;70.50;;;;;;5062014;28;20024;-56
2023/10/06 11:39:44;;;;;;;18.77;4.60;;;20.40;70.20;;;;;;5092797;28;20024;-61
2023/10/06 11:42:25;;;;;;;19.38;5.28;;;20.40;70.20;;;;;;5062479;28;20028;-58
2023/10/06 11:44:54;;;;;;;22.98;4.90;;;20.40;70.00;;;;;;5092438;28;20024;-58
2023/10/06 11:47:24;;;;;;;19.85;5.28;;;20.50;70.10;;;;;;5042371;28;20456;-60
2023/10/06 11:49:57;;;;;;;17.33;4.90;;;20.50;70.00;;;;;;5092070;28;20031;-57
2023/10/06 11:52:24;;;;;;;19.58;5.15;;;20.50;70.60;;;;;;5049862;28;20127;-61
2023/10/06 11:54:53;;;;;;;18.77;5.25;;;20.60;70.20;;;;;;5073697;28;20501;-58
2023/10/06 11:57:39;;;;;;;22.45;5.03;;;20.60;70.00;;;;;;5065976;28;20458;-60
2023/10/06 12:00:10;;;;;;;19.40;5.05;;;20.60;70.10;;;;;;5087192;28;20070;-57
2023/10/06 12:02:53;;;;;;;15.07;4.82;;;20.60;70.00;;;;;;5075459;28;20411;-58
2023/10/06 12:05:22;;;;;;;17.02;4.70;;;20.60;70.10;;;;;;5074066;28;20039;-59
2023/10/06 12:07:52;;;;;;;16.00;4.60;;;20.60;70.00;;;;;;5092186;28;20035;-61
2023/10/06 12:10:20;;;;;;;16.38;5.03;;;20.60;70.00;;;;;;5075176;28;20063;-61
2023/10/06 12:12:50;;;;;;;25.00;6.63;;;20.60;70.10;;;;;;5091848;28;20020;-60
2023/10/06 12:15:16;;;;;;;;;;;20.60;70.10;;;;;;5076819;28;20035;-58
2023/10/06 12:17:43;;;;;;;20.15;4.70;;;20.60;70.10;;;;;;5091909;28;19912;-53
2023/10/06 12:20:13;;;;;;;18.20;5.05;;;20.60;70.20;;;;;;5077204;28;20102;-57
2023/10/06 12:22:43;;;;;;;27.73;5.40;;;20.50;70.20;;;;;;5091368;28;20380;-57
2023/10/06 12:25:12;;;;;;;;;;;20.50;70.30;;;;;;5041986;28;20031;-58
2023/10/06 12:27:44;;;;;;;23.50;5.63;;;20.50;70.20;;;;;;5078629;28;19966;-58
2023/10/06 12:30:14;;;;;;;19.35;4.50;;;20.50;70.10;;;;;;5078272;28;20434;-57
2023/10/06 12:32:47;;;;;;;16.73;4.72;;;20.50;70.20;;;;;;5091159;28;20070;-58
2023/10/06 12:35:18;;;;;;;13.65;4.53;;;20.50;70.20;;;;;;5080283;28;20405;-52
2023/10/06 12:37:45;;;;;;;19.10;4.75;;;20.50;70.20;;;;;;5091105;28;20056;-56
2023/10/06 12:40:14;;;;;;;14.63;5.28;;;20.50;70.20;;;;;;5081488;28;20121;-56
2023/10/06 12:42:42;;;;;;;20.20;4.75;;;20.50;70.20;;;;;;5073347;28;20041;-54
2023/10/06 12:45:12;;;;;;;13.57;4.28;;;20.50;70.20;;;;;;5083025;28;20480;-58
2023/10/06 12:47:45;;;;;;;18.35;4.47;;;20.50;70.10;;;;;;5091541;28;20032;-58
2023/10/06 12:50:16;;;;;;;14.95;4.40;;;20.50;70.20;;;;;;5083542;28;20030;-57
2023/10/06 12:52:49;;;;;;;10.40;4.03;;;20.50;70.10;;;;;;5091016;28;20078;-57
2023/10/06 12:55:20;;;;;;;18.30;4.68;;;20.50;70.10;;;;;;5084271;28;20028;-55
2023/10/06 12:57:47;;;;;;;13.68;4.80;;;20.40;70.10;;;;;;5090601;28;20085;-55
2023/10/06 13:00:13;;;;;;;12.95;3.97;;;20.50;70.20;;;;;;5067210;28;20032;-57
2023/10/06 13:02:39;;;;;;;15.05;4.50;;;20.40;70.10;;;;;;5090757;28;20137;-59
2023/10/06 13:05:09;;;;;;;13.80;4.25;;;20.40;70.10;;;;;;5086286;28;20055;-60
2023/10/06 13:07:38;;;;;;;13.40;3.95;;;20.40;70.10;;;;;;5091326;28;20024;-58